createdAt,value
2022-09-10T00:00:06.460Z,147048.56
2022-09-10T00:02:37.698Z,147029.06
2022-09-10T00:05:05.267Z,146990.00
2022-09-10T00:07:32.870Z,146992.47
2022-09-10T00:09:59.853Z,146925.34
2022-09-10T00:12:26.888Z,147041.28
2022-09-10T00:14:54.388Z,146988.81
2022-09-10T00:17:21.532Z,146999.81
2022-09-10T00:19:48.603Z,147046.16
2022-09-10T00:22:15.796Z,147018.09
2022-09-10T00:24:42.780Z,146972.91
2022-09-10T00:27:10.261Z,147015.66
2022-09-10T00:29:38.091Z,146955.84
2022-09-10T00:32:05.362Z,146996.13
2022-09-10T00:34:32.780Z,147007.09
2022-09-10T00:37:00.075Z,147014.44
2022-09-10T00:39:27.112Z,147009.56
2022-09-10T00:41:54.974Z,147002.22
2022-09-10T00:44:40.354Z,147024.19
2022-09-10T00:47:20.002Z,146969.25
2022-09-10T00:49:50.099Z,146926.59
2022-09-10T00:52:17.843Z,146890.00
2022-09-10T00:54:46.773Z,146938.75
2022-09-10T00:57:19.311Z,146980.22
2022-09-10T00:59:51.068Z,146966.78
2022-09-10T01:02:18.234Z,146974.13
2022-09-10T01:04:45.764Z,146982.69
2022-09-10T01:07:14.367Z,146970.47
2022-09-10T01:09:42.487Z,146902.16
2022-09-10T01:12:47.024Z,146946.09
2022-09-10T01:15:29.278Z,146938.75
2022-09-10T01:18:26.398Z,146936.34
2022-09-10T01:21:08.145Z,146980.22
2022-09-10T01:23:47.458Z,146952.16
2022-09-10T01:26:45.939Z,146968.06
2022-09-10T01:29:24.239Z,146980.22
2022-09-10T01:31:59.614Z,146877.78
2022-09-10T01:34:32.754Z,146916.78
2022-09-10T01:37:12.229Z,146950.97
2022-09-10T01:39:40.280Z,146991.25
2022-09-10T01:42:07.687Z,146953.38
2022-09-10T01:44:50.034Z,146980.22
2022-09-10T01:48:06.122Z,146994.94
2022-09-10T01:51:11.058Z,146938.75
2022-09-10T01:54:02.477Z,146925.34
2022-09-10T01:56:38.727Z,146931.47
2022-09-10T01:59:34.276Z,146916.78
2022-09-10T02:02:19.549Z,146914.38
2022-09-10T02:04:50.362Z,146919.25
2022-09-10T02:07:22.322Z,146936.34
2022-09-10T02:09:52.191Z,146841.22
2022-09-10T02:12:22.875Z,146929.00
2022-09-10T02:15:05.945Z,146907.03
2022-09-10T02:17:47.030Z,146860.72
2022-09-10T02:20:14.680Z,146863.19
2022-09-10T02:22:58.554Z,146905.84
2022-09-10T02:25:32.491Z,146926.59
2022-09-10T02:28:03.164Z,146909.50
2022-09-10T02:30:30.459Z,146902.16
2022-09-10T02:32:57.797Z,146879.00
2022-09-10T02:35:24.767Z,146926.59
2022-09-10T02:37:53.323Z,146874.13
2022-09-10T02:40:20.349Z,146955.84
2022-09-10T02:42:47.491Z,146964.38
2022-09-10T02:45:18.897Z,146943.63
2022-09-10T02:47:46.025Z,146930.22
2022-09-10T02:50:15.901Z,146958.28
2022-09-10T02:52:46.119Z,146921.72
2022-09-10T02:55:13.560Z,146875.34
2022-09-10T02:57:42.145Z,146941.22
2022-09-10T03:00:10.720Z,146936.34
2022-09-10T03:02:37.902Z,146932.66
2022-09-10T03:05:05.409Z,146861.91
2022-09-10T03:07:33.122Z,146916.78
2022-09-10T03:10:01.470Z,146916.78
2022-09-10T03:12:28.462Z,146929.00
2022-09-10T03:14:58.022Z,146921.72
2022-09-10T03:17:26.033Z,146896.09
2022-09-10T03:19:53.054Z,146909.50
2022-09-10T03:22:21.813Z,146885.13
2022-09-10T03:24:48.821Z,146933.88
2022-09-10T03:27:18.106Z,146931.47
2022-09-10T03:29:45.231Z,146930.22
2022-09-10T03:32:13.931Z,146963.16
2022-09-10T03:34:40.975Z,146899.75
2022-09-10T03:37:07.965Z,146943.63
2022-09-10T03:39:36.200Z,146943.63
2022-09-10T03:42:05.111Z,146925.34
2022-09-10T03:44:33.514Z,146932.66
2022-09-10T03:47:01.280Z,146931.47
2022-09-10T03:49:28.923Z,146942.41
2022-09-10T03:51:56.114Z,146886.34
2022-09-10T03:54:24.586Z,146960.72
2022-09-10T03:56:51.906Z,146946.09
2022-09-10T03:59:19.017Z,146948.50
2022-09-10T04:01:47.179Z,146938.75
2022-09-10T04:04:14.904Z,146972.91
2022-09-10T04:06:42.537Z,146930.22
2022-09-10T04:09:10.690Z,146946.09
2022-09-10T04:11:38.038Z,146940.00
2022-09-10T04:14:05.422Z,146941.22
2022-09-10T04:16:35.913Z,146938.75
2022-09-10T04:19:03.494Z,146902.16
2022-09-10T04:21:31.476Z,146919.25
2022-09-10T04:24:01.959Z,146933.88
2022-09-10T04:26:29.386Z,146913.16
2022-09-10T04:28:56.530Z,146914.38
2022-09-10T04:31:23.849Z,146905.84
2022-09-10T04:33:54.983Z,146926.59
2022-09-10T04:36:25.636Z,146918.03
2022-09-10T04:38:52.668Z,146858.31
2022-09-10T04:41:19.766Z,146858.31
2022-09-10T04:43:48.190Z,146921.72
2022-09-10T04:46:15.622Z,146907.03
2022-09-10T04:48:43.367Z,146936.34
2022-09-10T04:51:17.590Z,146930.22
2022-09-10T04:53:49.633Z,146870.47
2022-09-10T04:56:16.942Z,146915.59
2022-09-10T04:58:44.625Z,146868.03
2022-09-10T05:01:14.463Z,146853.44
2022-09-10T05:03:44.567Z,146908.28
2022-09-10T05:06:12.487Z,146874.13
2022-09-10T05:08:40.601Z,146905.84
2022-09-10T05:11:08.280Z,146894.88
2022-09-10T05:13:35.315Z,146864.38
2022-09-10T05:16:02.580Z,146822.94
2022-09-10T05:18:32.121Z,146848.56
2022-09-10T05:20:59.510Z,146899.75
2022-09-10T05:23:28.004Z,146894.88
2022-09-10T05:25:56.666Z,146892.41
2022-09-10T05:28:24.641Z,146907.03
2022-09-10T05:30:52.549Z,146860.72
2022-09-10T05:33:22.579Z,146887.53
2022-09-10T05:35:53.003Z,146924.13
2022-09-10T05:38:21.382Z,146872.91
2022-09-10T05:40:48.928Z,146942.41
2022-09-10T05:43:15.985Z,146965.59
2022-09-10T05:45:44.978Z,146961.91
2022-09-10T05:48:12.999Z,146992.47
2022-09-10T05:50:40.957Z,146937.53
2022-09-10T05:53:09.962Z,146968.06
2022-09-10T05:55:37.923Z,146997.34
2022-09-10T05:58:06.310Z,147014.44
2022-09-10T06:00:36.496Z,147024.19
2022-09-10T06:03:04.422Z,147013.19
2022-09-10T06:05:37.354Z,147002.22
2022-09-10T06:08:08.557Z,147015.66
2022-09-10T06:10:38.530Z,147042.47
2022-09-10T06:13:07.082Z,147068.06
2022-09-10T06:15:35.722Z,147075.41
2022-09-10T06:18:03.249Z,147073.00
2022-09-10T06:20:32.034Z,147085.16
2022-09-10T06:22:59.786Z,147071.75
2022-09-10T06:25:27.288Z,147129.09
2022-09-10T06:27:54.949Z,147097.38
2022-09-10T06:30:22.284Z,147108.34
2022-09-10T06:32:49.341Z,147093.72
2022-09-10T06:35:16.573Z,147137.66
2022-09-10T06:37:44.079Z,147104.66
2022-09-10T06:40:12.488Z,147153.50
2022-09-10T06:42:41.276Z,147146.19
2022-09-10T06:45:14.258Z,147146.19
2022-09-10T06:48:37.059Z,147173.00
2022-09-10T06:51:01.888Z,147131.53
2022-09-10T06:53:36.482Z,147187.69
2022-09-10T06:56:05.896Z,147199.84
2022-09-10T06:58:37.388Z,147199.84
2022-09-10T07:01:13.115Z,147219.41
2022-09-10T07:03:43.406Z,147238.94
2022-09-10T07:06:13.326Z,147296.31
2022-09-10T07:08:41.587Z,147326.84
2022-09-10T07:11:14.674Z,147292.69
2022-09-10T07:13:43.110Z,147308.53
2022-09-10T07:16:10.403Z,147216.97
2022-09-10T07:18:37.513Z,147268.25
2022-09-10T07:21:13.546Z,147226.72
2022-09-10T07:23:48.317Z,147184.00
2022-09-10T07:26:17.661Z,147149.81
2022-09-10T07:28:48.600Z,147182.81
2022-09-10T07:31:20.090Z,147219.41
2022-09-10T07:33:49.691Z,147258.50
2022-09-10T07:36:18.243Z,147295.13
2022-09-10T07:38:48.178Z,147346.38
2022-09-10T07:41:15.365Z,147435.53
2022-09-10T07:43:43.955Z,147523.50
2022-09-10T07:46:19.150Z,147543.03
2022-09-10T07:48:48.553Z,147511.28
2022-09-10T07:51:19.327Z,147561.34
2022-09-10T07:53:53.330Z,147627.34
2022-09-10T07:56:20.714Z,147661.53
2022-09-10T07:58:49.251Z,147569.91
2022-09-10T08:01:19.580Z,147525.91
2022-09-10T08:03:47.010Z,147439.22
2022-09-10T08:06:17.910Z,147469.69
2022-09-10T08:08:46.328Z,147539.34
2022-09-10T08:11:17.444Z,147535.72
2022-09-10T08:13:49.502Z,147587.03
2022-09-10T08:16:19.098Z,147516.16
2022-09-10T08:18:51.070Z,147681.06
2022-09-10T08:21:19.574Z,147655.44
2022-09-10T08:23:50.858Z,147742.25
2022-09-10T08:26:18.889Z,147709.19
2022-09-10T08:28:47.890Z,147786.22
2022-09-10T08:31:16.632Z,147709.19
2022-09-10T08:33:51.719Z,147796.00
2022-09-10T08:36:21.697Z,147810.69
2022-09-10T08:38:50.267Z,147781.34
2022-09-10T08:41:35.717Z,147752.03
2022-09-10T08:44:33.735Z,147659.13
2022-09-10T08:47:10.081Z,147642.00
2022-09-10T08:49:58.521Z,147598.00
2022-09-10T08:52:31.955Z,147615.13
2022-09-10T08:55:19.231Z,147648.09
2022-09-10T08:57:54.099Z,147596.78
2022-09-10T09:00:32.385Z,147580.88
2022-09-10T09:03:36.972Z,147659.13
2022-09-10T09:06:08.404Z,147756.91
2022-09-10T09:08:48.333Z,147820.47
2022-09-10T09:11:34.239Z,147917.03
2022-09-10T09:14:16.015Z,147822.88
2022-09-10T09:17:01.908Z,147813.13
2022-09-10T09:19:54.134Z,147854.69
2022-09-10T09:22:40.166Z,147849.78
2022-09-10T09:25:22.614Z,147910.91
2022-09-10T09:27:57.511Z,147866.91
2022-09-10T09:30:37.084Z,147810.69
2022-09-10T09:33:18.396Z,147695.78
2022-09-10T09:35:56.949Z,147585.81
2022-09-10T09:38:30.596Z,147472.16
2022-09-10T09:41:08.311Z,147423.31
2022-09-10T09:43:52.333Z,147321.97
2022-09-10T09:46:24.264Z,147236.47
2022-09-10T09:48:57.529Z,147295.13
2022-09-10T09:51:30.508Z,147214.50
2022-09-10T09:54:34.519Z,147258.50
2022-09-10T09:56:51.011Z,147192.56
2022-09-10T09:59:26.674Z,147292.69
2022-09-10T10:01:58.466Z,147312.22
2022-09-10T10:04:30.898Z,147258.50
2022-09-10T10:06:59.974Z,147351.25
2022-09-10T10:09:32.971Z,147390.34
2022-09-10T10:12:05.617Z,147373.25
2022-09-10T10:14:32.646Z,147539.34
2022-09-10T10:17:01.011Z,147527.16
2022-09-10T10:19:40.082Z,147532.06
2022-09-10T10:22:21.055Z,147594.31
2022-09-10T10:24:52.495Z,147659.13
2022-09-10T10:27:42.601Z,147640.78
2022-09-10T10:30:18.575Z,147681.06
2022-09-10T10:32:58.459Z,147643.22
2022-09-10T10:36:03.834Z,147563.81
2022-09-10T10:38:34.415Z,147550.38
2022-09-10T10:41:30.868Z,147535.72
2022-09-10T10:44:03.739Z,147517.41
2022-09-10T10:46:55.790Z,147546.69
2022-09-10T10:49:48.803Z,147561.34
2022-09-10T10:52:26.448Z,147634.66
2022-09-10T10:54:59.531Z,147632.22
2022-09-10T10:58:01.553Z,147652.97
2022-09-10T11:00:36.085Z,147642.00
2022-09-10T11:03:25.135Z,147556.47
2022-09-10T11:05:57.506Z,147522.28
2022-09-10T11:08:31.801Z,147466.03
2022-09-10T11:11:11.337Z,147439.22
2022-09-10T11:13:57.531Z,147390.34
2022-09-10T11:16:40.446Z,147357.38
2022-09-10T11:19:37.135Z,147362.28
2022-09-10T11:22:22.714Z,147356.13
2022-09-10T11:24:57.370Z,147320.78
2022-09-10T11:27:30.389Z,147375.72
2022-09-10T11:30:05.479Z,147407.47
2022-09-10T11:32:39.317Z,147346.38
2022-09-10T11:35:15.220Z,147503.97
2022-09-10T11:38:20.513Z,147540.63
2022-09-10T11:41:17.874Z,147533.25
2022-09-10T11:44:20.193Z,147484.34
2022-09-10T11:47:04.137Z,147549.16
2022-09-10T11:49:42.616Z,147588.22
2022-09-10T11:52:11.903Z,147612.66
2022-09-10T11:54:39.746Z,147659.13
2022-09-10T11:57:12.776Z,147693.31
2022-09-10T12:00:03.350Z,147683.53
2022-09-10T12:02:38.984Z,147720.25
2022-09-10T12:05:11.981Z,147703.06
2022-09-10T12:08:06.754Z,147786.22
2022-09-10T12:11:05.338Z,147764.22
2022-09-10T12:13:36.996Z,147737.38
2022-09-10T12:16:19.101Z,147799.66
2022-09-10T12:18:50.284Z,147700.66
2022-09-10T12:21:32.337Z,147661.53
2022-09-10T12:24:03.427Z,147666.41
2022-09-10T12:26:42.670Z,147705.53
2022-09-10T12:29:29.523Z,147634.66
2022-09-10T12:32:09.048Z,147739.78
2022-09-10T12:34:37.134Z,147778.91
2022-09-10T12:37:04.219Z,147783.81
2022-09-10T12:39:32.054Z,147807.03
2022-09-10T12:42:01.602Z,147744.66
2022-09-10T12:44:43.886Z,147778.91
2022-09-10T12:47:13.951Z,147761.78
2022-09-10T12:50:00.713Z,147688.44
2022-09-10T12:52:42.487Z,147690.84
2022-09-10T12:55:31.845Z,147629.75
2022-09-10T12:58:17.769Z,147598.00
2022-09-10T13:00:58.048Z,147604.13
2022-09-10T13:03:28.841Z,147600.47
2022-09-10T13:06:01.957Z,147576.00
2022-09-10T13:08:42.930Z,147606.56
2022-09-10T13:11:22.394Z,147583.34
2022-09-10T13:13:59.547Z,147705.53
2022-09-10T13:16:26.527Z,147685.97
2022-09-10T13:19:19.254Z,147620.00
2022-09-10T13:21:47.974Z,147644.41
2022-09-10T13:24:33.926Z,147649.31
2022-09-10T13:27:41.585Z,147717.78
2022-09-10T13:30:19.513Z,147747.13
2022-09-10T13:32:57.935Z,147792.38
2022-09-10T13:35:47.433Z,147862.03
2022-09-10T13:38:20.774Z,147917.03
2022-09-10T13:41:10.806Z,147907.28
2022-09-10T13:43:48.602Z,147930.50
2022-09-10T13:46:31.601Z,147866.91
2022-09-10T13:49:13.512Z,147731.22
2022-09-10T13:51:53.137Z,147743.47
2022-09-10T13:54:34.935Z,147725.13
2022-09-10T13:57:13.089Z,147819.22
2022-09-10T13:59:42.007Z,147835.13
2022-09-10T14:02:09.175Z,147775.25
2022-09-10T14:04:41.973Z,147821.69
2022-09-10T14:07:20.365Z,147822.88
2022-09-10T14:09:56.636Z,147732.47
2022-09-10T14:12:27.526Z,147783.81
2022-09-10T14:14:59.019Z,147734.91
2022-09-10T14:17:31.775Z,147644.41
2022-09-10T14:20:01.409Z,147644.41
2022-09-10T14:22:29.521Z,147622.47
2022-09-10T14:24:59.780Z,147578.47
2022-09-10T14:27:41.383Z,147549.16
2022-09-10T14:30:25.478Z,147518.63
2022-09-10T14:32:53.157Z,147468.50
2022-09-10T14:35:42.960Z,147491.75
2022-09-10T14:38:23.154Z,147466.03
2022-09-10T14:40:58.258Z,147406.19
2022-09-10T14:43:31.900Z,147423.31
2022-09-10T14:46:00.402Z,147378.13
2022-09-10T14:48:38.688Z,147292.69
2022-09-10T14:51:10.565Z,147337.81
2022-09-10T14:53:38.320Z,147312.22
2022-09-10T14:56:16.099Z,147321.97
2022-09-10T14:58:45.892Z,147361.03
2022-09-10T15:01:12.931Z,147324.41
2022-09-10T15:03:42.173Z,147330.53
2022-09-10T15:06:11.085Z,147309.75
2022-09-10T15:08:38.166Z,147329.31
2022-09-10T15:11:06.571Z,147359.81
2022-09-10T15:13:39.448Z,147268.25
2022-09-10T15:16:06.518Z,147319.50
2022-09-10T15:18:33.534Z,147264.59
2022-09-10T15:21:02.087Z,147280.47
2022-09-10T15:23:29.199Z,147264.59
2022-09-10T15:25:57.911Z,147234.06
2022-09-10T15:28:25.012Z,147290.22
2022-09-10T15:30:52.651Z,147297.56
2022-09-10T15:33:19.908Z,147224.28
2022-09-10T15:35:47.927Z,147303.66
2022-09-10T15:38:16.471Z,147301.19
2022-09-10T15:40:43.767Z,147293.91
2022-09-10T15:43:10.763Z,147330.53
2022-09-10T15:45:38.865Z,147332.94
2022-09-10T15:48:07.049Z,147339.06
2022-09-10T15:50:34.604Z,147335.41
2022-09-10T15:53:01.618Z,147363.47
2022-09-10T15:55:29.168Z,147335.41
2022-09-10T15:57:56.186Z,147400.09
2022-09-10T16:00:23.679Z,147419.63
2022-09-10T16:02:53.799Z,147463.63
2022-09-10T16:05:21.223Z,147461.16
2022-09-10T16:07:49.581Z,147464.81
2022-09-10T16:10:17.119Z,147501.50
2022-09-10T16:12:44.488Z,147419.63
2022-09-10T16:15:12.183Z,147468.50
2022-09-10T16:17:39.234Z,147389.13
2022-09-10T16:20:06.598Z,147451.38
2022-09-10T16:22:33.754Z,147424.50
2022-09-10T16:25:00.761Z,147447.72
2022-09-10T16:27:27.772Z,147446.50
2022-09-10T16:29:54.912Z,147414.75
2022-09-10T16:32:21.936Z,147429.41
2022-09-10T16:34:48.946Z,147414.75
2022-09-10T16:37:17.220Z,147395.22
2022-09-10T16:39:44.260Z,147304.88
2022-09-10T16:42:11.397Z,147329.31
2022-09-10T16:44:38.564Z,147251.16
2022-09-10T16:47:05.721Z,147297.56
2022-09-10T16:49:32.790Z,147320.78
2022-09-10T16:51:59.818Z,147278.00
2022-09-10T16:54:26.869Z,147290.22
2022-09-10T16:56:53.877Z,147295.13
2022-09-10T16:59:22.698Z,147302.47
2022-09-10T17:01:51.593Z,147276.81
2022-09-10T17:04:23.578Z,147296.31
2022-09-10T17:06:55.456Z,147281.69
2022-09-10T17:09:22.617Z,147282.88
2022-09-10T17:11:49.622Z,147293.91
2022-09-10T17:14:16.619Z,147246.28
2022-09-10T17:16:44.241Z,147187.69
2022-09-10T17:19:17.512Z,147202.31
2022-09-10T17:21:50.793Z,147253.63
2022-09-10T17:24:20.912Z,147247.53
2022-09-10T17:26:48.701Z,147243.81
2022-09-10T17:29:19.037Z,147209.63
2022-09-10T17:31:46.982Z,147204.72
2022-09-10T17:34:16.082Z,147209.63
2022-09-10T17:36:45.300Z,147216.97
2022-09-10T17:39:13.183Z,147226.72
2022-09-10T17:41:40.990Z,147202.31
2022-09-10T17:44:09.226Z,147237.72
2022-09-10T17:46:37.007Z,147198.66
2022-09-10T17:49:04.399Z,147224.28
2022-09-10T17:51:33.443Z,147227.91
2022-09-10T17:54:02.858Z,147135.19
2022-09-10T17:56:30.557Z,147202.31
2022-09-10T17:59:01.368Z,147220.63
2022-09-10T18:01:30.869Z,147236.47
2022-09-10T18:03:58.049Z,147219.41
2022-09-10T18:06:27.072Z,147199.84
2022-09-10T18:08:58.862Z,147160.84
2022-09-10T18:11:28.166Z,147182.81
2022-09-10T18:13:57.181Z,147143.75
2022-09-10T18:16:26.746Z,147192.56
2022-09-10T18:18:59.961Z,147188.91
2022-09-10T18:21:32.674Z,147160.84
2022-09-10T18:24:05.560Z,147138.84
2022-09-10T18:26:34.974Z,147184.00
2022-09-10T18:29:05.310Z,147146.19
2022-09-10T18:31:35.661Z,147182.81
2022-09-10T18:34:04.043Z,147163.25
2022-09-10T18:36:31.508Z,147129.09
2022-09-10T18:39:02.561Z,147137.66
2022-09-10T18:41:32.422Z,147065.66
2022-09-10T18:44:03.904Z,147138.84
2022-09-10T18:46:32.487Z,147130.31
2022-09-10T18:49:00.464Z,147119.34
2022-09-10T18:51:29.807Z,147085.16
2022-09-10T18:53:59.915Z,147044.91
2022-09-10T18:56:31.872Z,147042.47
2022-09-10T18:59:05.505Z,147129.09
2022-09-10T19:01:34.562Z,147109.59
2022-09-10T19:04:03.067Z,147102.25
2022-09-10T19:06:33.370Z,147048.56
2022-09-10T19:09:06.828Z,147109.59
2022-09-10T19:11:36.990Z,147116.88
2022-09-10T19:14:08.621Z,147083.97
2022-09-10T19:16:36.087Z,147083.97
2022-09-10T19:19:06.402Z,147099.78
2022-09-10T19:21:38.162Z,147107.13
2022-09-10T19:24:05.298Z,147109.59
2022-09-10T19:26:34.384Z,147112.00
2022-09-10T19:29:02.051Z,147116.88
2022-09-10T19:31:32.010Z,147107.13
2022-09-10T19:34:09.666Z,147057.13
2022-09-10T19:36:36.942Z,147104.66
2022-09-10T19:39:09.152Z,147102.25
2022-09-10T19:41:39.026Z,147096.16
2022-09-10T19:44:07.806Z,147090.03
2022-09-10T19:46:38.492Z,147073.00
2022-09-10T19:49:06.510Z,147051.03
2022-09-10T19:51:35.660Z,147077.88
2022-09-10T19:54:03.557Z,147068.06
2022-09-10T19:56:36.724Z,147082.75
2022-09-10T19:59:08.507Z,147082.75
2022-09-10T20:01:39.364Z,147090.03
2022-09-10T20:04:08.594Z,147073.00
2022-09-10T20:06:36.013Z,147099.78
2022-09-10T20:09:05.013Z,147101.06
2022-09-10T20:11:33.555Z,147042.47
2022-09-10T20:14:03.824Z,147099.78
2022-09-10T20:16:31.361Z,147068.06
2022-09-10T20:18:58.371Z,147080.28
2022-09-10T20:21:28.205Z,147103.47
2022-09-10T20:23:56.268Z,147097.38
2022-09-10T20:26:28.738Z,147068.06
2022-09-10T20:28:59.157Z,147092.50
2022-09-10T20:31:28.704Z,147102.25
2022-09-10T20:33:57.783Z,147090.03
2022-09-10T20:36:26.732Z,147029.06
2022-09-10T20:38:54.645Z,147080.28
2022-09-10T20:41:23.324Z,147031.47
2022-09-10T20:43:51.729Z,147097.38
2022-09-10T20:46:22.117Z,147085.16
2022-09-10T20:48:51.603Z,147126.66
2022-09-10T20:51:22.657Z,147110.81
2022-09-10T20:53:49.696Z,147109.59
2022-09-10T20:56:18.906Z,147055.91
2022-09-10T20:58:46.790Z,147077.88
2022-09-10T21:01:16.980Z,147037.59
2022-09-10T21:03:44.872Z,147080.28
2022-09-10T21:06:13.737Z,147092.50
2022-09-10T21:08:42.430Z,147082.75
2022-09-10T21:11:12.414Z,147047.38
2022-09-10T21:13:45.477Z,147002.22
2022-09-10T21:16:13.859Z,147054.69
2022-09-10T21:18:42.330Z,146944.88
2022-09-10T21:21:14.680Z,147062.00
2022-09-10T21:23:42.891Z,147046.16
2022-09-10T21:26:11.883Z,147062.00
2022-09-10T21:28:40.105Z,147062.00
2022-09-10T21:31:08.967Z,147070.53
2022-09-10T21:33:36.846Z,147073.00
2022-09-10T21:36:11.260Z,147073.00
2022-09-10T21:38:38.816Z,147081.50
2022-09-10T21:41:08.363Z,147055.91
2022-09-10T21:43:35.631Z,146985.09
2022-09-10T21:46:04.963Z,146982.69
2022-09-10T21:48:35.708Z,146944.88
2022-09-10T21:51:05.720Z,147022.97
2022-09-10T21:53:34.486Z,147038.81
2022-09-10T21:56:03.014Z,147024.19
2022-09-10T21:58:33.121Z,146975.34
2022-09-10T22:01:00.599Z,147019.31
2022-09-10T22:03:29.744Z,147015.66
2022-09-10T22:06:11.607Z,146992.47
2022-09-10T22:08:41.131Z,146997.34
2022-09-10T22:11:20.036Z,146999.81
2022-09-10T22:13:52.013Z,146994.94
2022-09-10T22:16:19.807Z,147014.44
2022-09-10T22:18:47.291Z,147018.09
2022-09-10T22:21:15.412Z,147009.56
2022-09-10T22:23:43.711Z,146999.81
2022-09-10T22:26:12.813Z,147009.56
2022-09-10T22:28:40.777Z,146997.34
2022-09-10T22:31:17.059Z,147002.22
2022-09-10T22:33:45.881Z,147014.44
2022-09-10T22:36:13.105Z,147014.44
2022-09-10T22:38:41.532Z,146990.00
2022-09-10T22:41:10.177Z,146996.13
2022-09-10T22:43:38.334Z,146997.34
2022-09-10T22:46:07.107Z,146913.16
2022-09-10T22:48:38.415Z,146988.81
2022-09-10T22:51:06.786Z,146997.34
2022-09-10T22:53:35.151Z,146976.59
2022-09-10T22:56:02.407Z,146997.34
2022-09-10T22:58:29.422Z,147005.88
2022-09-10T23:00:56.699Z,146971.66
2022-09-10T23:03:23.817Z,146968.06
2022-09-10T23:05:50.834Z,146970.47
2022-09-10T23:08:18.217Z,146999.81
2022-09-10T23:10:45.292Z,147014.44
2022-09-10T23:13:12.291Z,147013.19
2022-09-10T23:15:39.848Z,147009.56
2022-09-10T23:18:07.077Z,146961.91
2022-09-10T23:20:34.081Z,147019.31
2022-09-10T23:23:01.081Z,146914.38
2022-09-10T23:25:28.079Z,146911.91
2022-09-10T23:27:55.840Z,146999.81
2022-09-10T23:30:22.979Z,146958.28
2022-09-10T23:32:50.471Z,147019.31
2022-09-10T23:35:18.430Z,147002.22
2022-09-10T23:37:45.792Z,146997.34
2022-09-10T23:40:14.034Z,146842.44
2022-09-10T23:42:41.107Z,146994.94
2022-09-10T23:45:08.553Z,147004.69
2022-09-10T23:47:35.599Z,147010.78
2022-09-10T23:50:03.049Z,147004.69
2022-09-10T23:52:30.094Z,146898.50
2022-09-10T23:54:57.098Z,147009.56
2022-09-10T23:57:25.186Z,146936.34
2022-09-10T23:59:52.673Z,147004.69
